createdAt,value
2018-03-11T00:02:13.352Z,76.20
2018-03-11T00:04:40.822Z,76.10
2018-03-11T00:07:08.308Z,76.10
2018-03-11T00:09:35.790Z,75.80
2018-03-11T00:12:03.335Z,76.10
2018-03-11T00:14:30.799Z,76.70
2018-03-11T00:16:58.305Z,76.10
2018-03-11T00:19:25.775Z,76.00
2018-03-11T00:21:53.265Z,76.10
2018-03-11T00:24:21.542Z,76.30
2018-03-11T00:26:49.055Z,76.20
2018-03-11T00:29:16.563Z,76.40
2018-03-11T00:31:44.010Z,76.50
2018-03-11T00:34:11.466Z,76.60
2018-03-11T00:36:38.954Z,76.70
2018-03-11T00:39:06.484Z,76.70
2018-03-11T00:41:33.914Z,76.80
2018-03-11T00:44:01.395Z,76.70
2018-03-11T00:46:28.861Z,76.70
2018-03-11T00:48:56.315Z,76.70
2018-03-11T00:51:23.789Z,76.70
2018-03-11T00:53:52.027Z,76.50
2018-03-11T00:56:19.507Z,76.80
2018-03-11T00:58:46.967Z,76.80
2018-03-11T01:01:14.422Z,76.70
2018-03-11T01:03:41.892Z,76.70
2018-03-11T01:06:09.346Z,77.40
2018-03-11T01:08:36.810Z,76.60
2018-03-11T01:11:04.266Z,76.80
2018-03-11T01:13:31.739Z,76.90
2018-03-11T01:15:59.199Z,76.70
2018-03-11T01:18:26.682Z,76.80
2018-03-11T01:20:54.145Z,76.70
2018-03-11T01:23:21.812Z,76.70
2018-03-11T01:25:49.283Z,76.70
2018-03-11T01:28:16.769Z,76.70
2018-03-11T01:30:44.222Z,76.80
2018-03-11T01:33:11.682Z,77.80
2018-03-11T01:35:39.155Z,77.80
2018-03-11T01:38:07.387Z,77.80
2018-03-11T01:40:34.869Z,77.80
2018-03-11T01:43:02.327Z,77.80
2018-03-11T01:45:29.795Z,77.80
2018-03-11T01:47:57.260Z,77.80
2018-03-11T01:50:24.727Z,77.70
2018-03-11T01:53:03.934Z,77.60
2018-03-11T01:55:31.393Z,77.70
2018-03-11T01:57:58.851Z,77.60
2018-03-11T02:00:26.314Z,77.70
2018-03-11T02:02:53.777Z,77.70
2018-03-11T02:05:21.275Z,77.70
2018-03-11T02:07:48.753Z,77.80
2018-03-11T02:10:16.221Z,77.70
2018-03-11T02:12:43.688Z,78.30
2018-03-11T02:15:11.922Z,77.60
2018-03-11T02:17:39.386Z,77.50
2018-03-11T02:20:06.890Z,77.60
2018-03-11T02:22:34.350Z,77.50
2018-03-11T02:27:35.735Z,77.30
2018-03-11T02:30:03.197Z,77.30
2018-03-11T02:32:30.673Z,77.30
2018-03-11T02:34:58.132Z,77.20
2018-03-11T02:37:25.608Z,77.30
2018-03-11T02:39:53.071Z,77.30
2018-03-11T02:42:20.541Z,77.40
2018-03-11T02:44:48.767Z,77.40
2018-03-11T02:47:16.255Z,77.40
2018-03-11T02:49:43.723Z,77.50
2018-03-11T02:52:11.178Z,77.40
2018-03-11T02:54:38.649Z,77.40
2018-03-11T02:57:06.110Z,77.30
2018-03-11T02:59:33.578Z,77.10
2018-03-11T03:02:01.039Z,77.20
2018-03-11T03:04:28.507Z,77.00
2018-03-11T03:06:55.962Z,77.00
2018-03-11T03:09:23.432Z,77.10
2018-03-11T03:11:50.878Z,77.20
2018-03-11T03:14:18.338Z,77.20
2018-03-11T03:16:45.798Z,77.20
2018-03-11T03:19:13.266Z,77.00
2018-03-11T03:21:40.717Z,77.20
2018-03-11T03:24:08.205Z,77.20
2018-03-11T03:26:35.666Z,77.00
2018-03-11T03:29:03.156Z,77.00
2018-03-11T03:31:30.602Z,77.10
2018-03-11T03:33:58.832Z,76.90
2018-03-11T03:36:26.293Z,76.90
2018-03-11T03:38:53.745Z,76.90
2018-03-11T03:41:21.997Z,77.10
2018-03-11T03:43:49.473Z,77.10
2018-03-11T03:46:16.963Z,77.00
2018-03-11T03:48:44.418Z,77.00
2018-03-11T03:51:11.899Z,77.00
2018-03-11T03:53:39.352Z,77.00
2018-03-11T03:56:06.815Z,77.00
2018-03-11T03:58:34.277Z,77.00
2018-03-11T04:01:01.747Z,77.00
2018-03-11T04:03:29.204Z,76.80
2018-03-11T04:05:56.668Z,76.70
2018-03-11T04:08:24.132Z,76.90
2018-03-11T04:10:51.594Z,77.70
2018-03-11T04:13:19.062Z,77.20
2018-03-11T04:15:46.561Z,77.10
2018-03-11T04:18:14.031Z,77.20
2018-03-11T04:20:41.488Z,77.00
2018-03-11T04:23:08.954Z,76.90
2018-03-11T04:25:36.412Z,77.20
2018-03-11T04:28:03.878Z,77.30
2018-03-11T04:30:31.334Z,77.60
2018-03-11T04:32:58.802Z,77.20
2018-03-11T04:35:26.250Z,77.10
2018-03-11T04:37:53.717Z,77.30
2018-03-11T04:40:21.166Z,77.40
2018-03-11T04:42:48.638Z,77.60
2018-03-11T04:45:16.094Z,77.70
2018-03-11T04:47:43.563Z,77.90
2018-03-11T04:50:11.018Z,77.70
2018-03-11T04:52:38.494Z,77.70
2018-03-11T04:55:05.950Z,77.70
2018-03-11T04:57:33.414Z,77.50
2018-03-11T05:00:00.891Z,78.20
2018-03-11T05:02:29.108Z,77.50
2018-03-11T05:04:57.342Z,77.40
2018-03-11T05:07:24.799Z,77.40
2018-03-11T05:09:52.268Z,77.30
2018-03-11T05:12:19.714Z,77.40
2018-03-11T05:14:47.249Z,77.30
2018-03-11T05:17:14.662Z,77.20
2018-03-11T05:19:42.138Z,77.10
2018-03-11T05:22:09.589Z,77.10
2018-03-11T05:24:37.059Z,77.20
2018-03-11T05:27:04.510Z,77.70
2018-03-11T05:29:31.979Z,77.00
2018-03-11T05:31:59.443Z,77.20
2018-03-11T05:34:26.902Z,77.30
2018-03-11T05:36:54.361Z,77.50
2018-03-11T05:39:21.838Z,77.60
2018-03-11T05:41:49.294Z,77.60
2018-03-11T05:44:16.758Z,77.40
2018-03-11T05:46:44.228Z,77.20
2018-03-11T05:49:11.682Z,76.90
2018-03-11T05:51:39.147Z,77.10
2018-03-11T05:54:06.760Z,77.10
2018-03-11T05:56:34.171Z,77.20
2018-03-11T05:59:01.634Z,77.30
2018-03-11T06:01:29.118Z,77.10
2018-03-11T06:03:56.583Z,76.70
2018-03-11T06:06:24.057Z,76.70
2018-03-11T06:08:51.531Z,76.90
2018-03-11T06:11:19.743Z,77.10
2018-03-11T06:13:47.203Z,77.10
2018-03-11T06:16:14.674Z,77.00
2018-03-11T06:18:42.142Z,77.00
2018-03-11T06:21:09.602Z,76.90
2018-03-11T06:23:37.070Z,76.80
2018-03-11T06:26:04.559Z,76.90
2018-03-11T06:28:32.033Z,76.70
2018-03-11T06:30:59.498Z,76.70
2018-03-11T06:33:26.958Z,76.80
2018-03-11T06:35:54.415Z,76.70
2018-03-11T06:38:21.890Z,76.60
2018-03-11T06:40:49.342Z,76.60
2018-03-11T06:43:16.811Z,76.50
2018-03-11T06:45:44.271Z,76.50
2018-03-11T06:48:12.498Z,76.30
2018-03-11T06:50:39.962Z,76.60
2018-03-11T06:53:07.442Z,76.50
2018-03-11T06:55:34.898Z,76.40
2018-03-11T06:58:02.370Z,76.50
2018-03-11T07:00:29.830Z,76.50
2018-03-11T07:02:57.298Z,76.50
2018-03-11T07:05:24.750Z,76.40
2018-03-11T07:07:52.215Z,76.40
2018-03-11T07:10:19.670Z,76.50
2018-03-11T07:12:47.178Z,76.40
2018-03-11T07:15:14.654Z,76.50
2018-03-11T07:17:42.106Z,76.60
2018-03-11T07:20:09.571Z,76.70
2018-03-11T07:22:37.021Z,76.80
2018-03-11T07:25:04.558Z,76.60
2018-03-11T07:27:32.018Z,76.40
2018-03-11T07:29:59.521Z,76.50
2018-03-11T07:32:26.973Z,76.60
2018-03-11T07:34:54.450Z,76.50
2018-03-11T07:37:21.916Z,76.40
2018-03-11T07:39:49.376Z,76.30
2018-03-11T07:42:16.831Z,76.30
2018-03-11T07:44:44.300Z,76.30
2018-03-11T07:47:11.812Z,76.10
2018-03-11T07:49:39.294Z,76.00
2018-03-11T07:52:06.824Z,75.80
2018-03-11T07:54:34.266Z,76.00
2018-03-11T07:57:01.722Z,76.30
2018-03-11T07:59:29.186Z,76.30
2018-03-11T08:01:56.647Z,76.40
2018-03-11T08:04:24.144Z,76.20
2018-03-11T08:06:51.600Z,76.30
2018-03-11T08:09:19.063Z,76.20
2018-03-11T08:11:46.531Z,76.00
2018-03-11T08:14:13.997Z,76.00
2018-03-11T08:16:41.462Z,74.80
2018-03-11T08:19:08.918Z,74.80
2018-03-11T08:21:36.434Z,74.70
2018-03-11T08:24:03.903Z,74.60
2018-03-11T08:26:31.371Z,74.40
2018-03-11T08:28:58.825Z,74.10
2018-03-11T08:31:26.308Z,73.70
2018-03-11T08:33:53.769Z,73.10
2018-03-11T08:36:21.395Z,72.70
2018-03-11T08:38:48.897Z,72.40
2018-03-11T08:41:16.367Z,72.50
2018-03-11T08:43:43.825Z,72.40
2018-03-11T08:46:11.307Z,72.20
2018-03-11T08:48:38.782Z,72.10
2018-03-11T08:51:06.249Z,71.90
2018-03-11T08:53:33.718Z,71.80
2018-03-11T08:56:01.198Z,71.70
2018-03-11T08:58:28.659Z,71.60
2018-03-11T09:00:56.190Z,71.50
2018-03-11T09:03:23.664Z,71.50
2018-03-11T09:05:51.121Z,71.40
2018-03-11T09:08:18.605Z,71.40
2018-03-11T09:10:46.834Z,71.50
2018-03-11T09:13:14.306Z,71.40
2018-03-11T09:15:41.808Z,71.40
2018-03-11T09:18:09.238Z,71.30
2018-03-11T09:20:36.704Z,71.00
2018-03-11T09:23:04.214Z,70.90
2018-03-11T09:25:31.678Z,70.60
2018-03-11T09:27:59.146Z,70.20
2018-03-11T09:30:26.598Z,70.00
2018-03-11T09:32:54.066Z,69.80
2018-03-11T09:35:21.553Z,69.70
2018-03-11T09:37:49.786Z,69.00
2018-03-11T09:40:18.080Z,68.70
2018-03-11T09:42:45.593Z,68.70
2018-03-11T09:45:13.224Z,68.60
2018-03-11T09:47:40.970Z,68.50
2018-03-11T09:50:08.468Z,68.30
2018-03-11T09:52:35.958Z,67.90
2018-03-11T09:55:03.409Z,67.70
2018-03-11T09:57:30.875Z,67.60
2018-03-11T09:59:58.342Z,67.30
2018-03-11T10:02:25.843Z,67.10
2018-03-11T10:04:53.307Z,66.90
2018-03-11T10:07:20.786Z,66.50
2018-03-11T10:09:48.261Z,66.20
2018-03-11T10:12:15.742Z,65.80
2018-03-11T10:14:43.205Z,65.30
2018-03-11T10:17:10.672Z,64.90
2018-03-11T10:19:38.943Z,64.10
2018-03-11T10:22:06.406Z,64.00
2018-03-11T10:24:34.641Z,63.40
2018-03-11T10:27:02.136Z,63.30
2018-03-11T10:29:31.116Z,62.90
2018-03-11T10:31:58.583Z,62.80
2018-03-11T10:34:26.820Z,62.20
2018-03-11T10:36:54.320Z,62.20
2018-03-11T10:39:21.837Z,61.90
2018-03-11T10:41:49.370Z,61.60
2018-03-11T10:44:16.831Z,61.40
2018-03-11T10:46:44.307Z,61.10
2018-03-11T10:49:11.860Z,60.90
2018-03-11T10:51:39.327Z,60.70
2018-03-11T10:54:06.816Z,60.50
2018-03-11T10:56:34.282Z,60.30
2018-03-11T10:59:01.833Z,60.80
2018-03-11T11:01:35.676Z,59.60
2018-03-11T11:04:03.146Z,59.60
2018-03-11T11:06:30.655Z,59.50
2018-03-11T11:08:58.870Z,59.60
2018-03-11T11:11:26.356Z,59.40
2018-03-11T11:13:53.830Z,59.40
2018-03-11T11:16:21.329Z,59.30
2018-03-11T11:18:48.864Z,59.20
2018-03-11T11:21:17.082Z,58.80
2018-03-11T11:23:44.554Z,58.80
2018-03-11T11:26:12.038Z,58.60
2018-03-11T11:28:39.536Z,58.30
2018-03-11T11:31:07.011Z,58.10
2018-03-11T11:33:34.502Z,58.10
2018-03-11T11:36:01.958Z,58.00
2018-03-11T11:38:29.439Z,57.80
2018-03-11T11:40:57.703Z,57.60
2018-03-11T11:43:25.170Z,57.50
2018-03-11T11:45:52.630Z,57.40
2018-03-11T11:48:21.968Z,57.20
2018-03-11T11:50:49.436Z,57.10
2018-03-11T11:53:16.898Z,57.20
2018-03-11T11:55:44.382Z,57.20
2018-03-11T11:58:12.745Z,57.10
2018-03-11T12:00:40.213Z,57.40
2018-03-11T12:03:07.677Z,56.70
2018-03-11T12:05:35.141Z,56.60
2018-03-11T12:08:03.371Z,56.00
2018-03-11T12:10:30.862Z,56.00
2018-03-11T12:12:58.324Z,55.90
2018-03-11T12:15:25.806Z,55.70
2018-03-11T12:17:53.291Z,55.60
2018-03-11T12:20:20.765Z,55.50
2018-03-11T12:22:48.225Z,55.40
2018-03-11T12:25:15.697Z,55.30
2018-03-11T12:27:43.183Z,55.20
2018-03-11T12:30:11.419Z,55.20
2018-03-11T12:32:38.882Z,55.20
2018-03-11T12:35:06.350Z,55.10
2018-03-11T12:37:33.839Z,54.70
2018-03-11T12:40:01.294Z,54.50
2018-03-11T12:42:28.770Z,54.20
2018-03-11T12:44:56.243Z,53.70
2018-03-11T12:47:23.709Z,53.20
2018-03-11T12:49:51.158Z,52.40
2018-03-11T12:52:18.622Z,51.80
2018-03-11T12:54:46.083Z,51.30
2018-03-11T12:57:13.554Z,50.60
2018-03-11T12:59:41.046Z,50.30
2018-03-11T13:02:08.515Z,50.10
2018-03-11T13:04:35.978Z,50.00
2018-03-11T13:07:03.458Z,49.90
2018-03-11T13:09:30.922Z,50.00
2018-03-11T13:11:58.403Z,49.60
2018-03-11T13:14:25.859Z,49.40
2018-03-11T13:16:53.340Z,49.50
2018-03-11T13:19:20.821Z,49.50
2018-03-11T13:21:48.303Z,49.90
2018-03-11T13:24:15.758Z,49.30
2018-03-11T13:26:43.220Z,49.20
2018-03-11T13:29:10.852Z,49.20
2018-03-11T13:31:38.315Z,49.20
2018-03-11T13:37:04.719Z,49.50
2018-03-11T13:39:44.034Z,49.30
2018-03-11T13:42:11.495Z,49.40
2018-03-11T13:44:38.996Z,49.40
2018-03-11T13:47:08.065Z,49.10
2018-03-11T13:49:35.539Z,48.90
2018-03-11T13:52:14.702Z,48.80
2018-03-11T13:54:42.179Z,48.70
2018-03-11T13:57:32.335Z,48.60
2018-03-11T13:59:59.807Z,48.50
2018-03-11T14:02:27.258Z,49.10
2018-03-11T14:04:54.770Z,48.70
2018-03-11T14:07:22.991Z,48.70
2018-03-11T14:09:50.482Z,48.70
2018-03-11T14:12:17.965Z,48.60
2018-03-11T14:14:45.421Z,48.60
2018-03-11T14:17:12.893Z,48.50
2018-03-11T14:19:40.358Z,48.30
2018-03-11T14:22:07.811Z,48.00
2018-03-11T14:24:35.261Z,47.80
2018-03-11T14:27:02.735Z,47.40
2018-03-11T14:29:30.215Z,47.30
2018-03-11T14:31:57.695Z,47.20
2018-03-11T14:34:25.151Z,47.10
2018-03-11T14:36:52.650Z,47.10
2018-03-11T14:39:20.116Z,47.30
2018-03-11T14:41:47.590Z,47.30
2018-03-11T14:44:15.047Z,47.60
2018-03-11T14:46:42.519Z,47.70
2018-03-11T14:49:09.979Z,47.80
2018-03-11T14:51:37.445Z,47.70
2018-03-11T14:54:04.890Z,47.70
2018-03-11T14:56:32.374Z,47.80
2018-03-11T14:58:59.815Z,48.00
2018-03-11T15:01:27.283Z,48.10
2018-03-11T15:03:54.998Z,48.20
2018-03-11T15:06:22.516Z,48.50
2018-03-11T15:08:49.999Z,48.80
2018-03-11T15:11:17.487Z,49.00
2018-03-11T15:13:44.934Z,49.30
2018-03-11T15:16:12.760Z,49.40
2018-03-11T15:18:40.975Z,49.60
2018-03-11T15:21:08.485Z,49.60
2018-03-11T15:23:35.945Z,49.60
2018-03-11T15:26:04.177Z,49.70
2018-03-11T15:28:31.647Z,49.70
2018-03-11T15:30:59.098Z,49.90
2018-03-11T15:33:26.558Z,50.10
2018-03-11T15:35:54.048Z,50.20
2018-03-11T15:38:22.273Z,50.30
2018-03-11T15:40:49.730Z,50.20
2018-03-11T15:43:17.218Z,50.40
2018-03-11T15:45:44.727Z,50.40
2018-03-11T15:48:12.153Z,50.40
2018-03-11T15:50:40.387Z,50.40
2018-03-11T15:53:07.850Z,50.30
2018-03-11T15:55:35.308Z,50.30
2018-03-11T15:58:02.795Z,50.50
2018-03-11T16:00:30.254Z,50.60
2018-03-11T16:02:57.719Z,50.70
2018-03-11T16:05:25.187Z,50.80
2018-03-11T16:07:52.641Z,50.80
2018-03-11T16:10:20.115Z,50.80
2018-03-11T16:12:47.584Z,51.00
2018-03-11T16:15:15.043Z,51.30
2018-03-11T16:17:42.517Z,51.50
2018-03-11T16:20:09.997Z,51.90
2018-03-11T16:22:37.455Z,52.20
2018-03-11T16:25:04.922Z,52.40
2018-03-11T16:27:32.423Z,52.70
2018-03-11T16:29:59.914Z,52.90
2018-03-11T16:32:27.350Z,53.10
2018-03-11T16:34:54.829Z,53.20
2018-03-11T16:37:22.299Z,53.40
2018-03-11T16:39:49.807Z,53.60
2018-03-11T16:42:17.272Z,54.00
2018-03-11T16:44:44.760Z,54.30
2018-03-11T16:47:12.215Z,54.70
2018-03-11T16:49:39.678Z,54.90
2018-03-11T16:52:07.156Z,55.10
2018-03-11T16:54:34.618Z,55.20
2018-03-11T16:57:02.074Z,55.10
2018-03-11T16:59:29.527Z,55.00
2018-03-11T17:01:57.007Z,54.80
2018-03-11T17:04:24.475Z,54.70
2018-03-11T17:06:51.934Z,54.80
2018-03-11T17:09:19.388Z,54.80
2018-03-11T17:11:46.842Z,54.90
2018-03-11T17:14:14.322Z,55.00
2018-03-11T17:16:41.783Z,55.00
2018-03-11T17:19:09.238Z,55.10
2018-03-11T17:21:36.734Z,55.20
2018-03-11T17:24:04.249Z,55.20
2018-03-11T17:26:31.709Z,55.20
2018-03-11T17:28:59.159Z,55.30
2018-03-11T17:31:26.616Z,55.40
2018-03-11T17:33:54.091Z,55.40
2018-03-11T17:36:21.563Z,55.40
2018-03-11T17:38:49.034Z,55.50
2018-03-11T17:41:17.253Z,55.50
2018-03-11T17:43:44.716Z,55.50
2018-03-11T17:46:12.166Z,56.10
2018-03-11T17:48:40.367Z,55.70
2018-03-11T17:51:07.818Z,55.70
2018-03-11T17:53:35.286Z,55.90
2018-03-11T17:56:02.735Z,56.20
2018-03-11T17:58:30.201Z,56.40
2018-03-11T18:00:57.667Z,56.70
2018-03-11T18:03:25.134Z,57.00
2018-03-11T18:05:53.366Z,57.60
2018-03-11T18:08:20.844Z,57.50
2018-03-11T18:10:48.306Z,57.90
2018-03-11T18:13:15.759Z,58.20
2018-03-11T18:15:43.246Z,58.40
2018-03-11T18:18:11.467Z,58.90
2018-03-11T18:20:38.943Z,58.90
2018-03-11T18:23:06.408Z,59.20
2018-03-11T18:25:33.887Z,59.60
2018-03-11T18:28:01.360Z,59.90
2018-03-11T18:30:28.831Z,60.30
2018-03-11T18:32:56.299Z,60.60
2018-03-11T18:35:23.782Z,60.90
2018-03-11T18:37:52.010Z,61.20
2018-03-11T18:40:19.482Z,61.20
2018-03-11T18:42:46.940Z,61.30
2018-03-11T18:45:14.470Z,61.10
2018-03-11T18:47:42.682Z,60.40
2018-03-11T18:50:10.171Z,60.50
2018-03-11T18:52:37.635Z,60.20
2018-03-11T18:55:05.103Z,60.00
2018-03-11T18:57:32.559Z,59.80
2018-03-11T19:00:00.023Z,60.30
2018-03-11T19:02:28.240Z,59.60
2018-03-11T19:04:55.726Z,59.60
2018-03-11T19:07:23.190Z,59.60
2018-03-11T19:09:50.663Z,59.60
2018-03-11T19:12:18.123Z,59.70
2018-03-11T19:14:45.596Z,59.90
2018-03-11T19:17:13.831Z,60.20
2018-03-11T19:19:41.300Z,60.30
2018-03-11T19:22:08.779Z,60.20
2018-03-11T19:24:36.238Z,60.20
2018-03-11T19:27:04.473Z,60.20
2018-03-11T19:29:31.922Z,60.20
2018-03-11T19:31:59.409Z,60.30
2018-03-11T19:34:26.902Z,60.30
2018-03-11T19:36:54.362Z,60.30
2018-03-11T19:39:21.859Z,60.40
2018-03-11T19:41:49.417Z,60.40
2018-03-11T19:44:16.823Z,60.60
2018-03-11T19:46:44.293Z,60.60
2018-03-11T19:49:11.755Z,60.60
2018-03-11T19:51:39.236Z,60.60
2018-03-11T19:54:06.686Z,60.80
2018-03-11T19:56:34.158Z,60.90
2018-03-11T19:59:01.610Z,61.10
2018-03-11T20:01:29.080Z,61.30
2018-03-11T20:03:56.541Z,61.70
2018-03-11T20:06:24.006Z,61.90
2018-03-11T20:08:51.483Z,62.30
2018-03-11T20:11:18.943Z,62.90
2018-03-11T20:13:47.162Z,63.60
2018-03-11T20:16:14.622Z,63.60
2018-03-11T20:18:42.084Z,63.70
2018-03-11T20:21:09.552Z,63.90
2018-03-11T20:23:36.998Z,64.20
2018-03-11T20:26:04.476Z,64.30
2018-03-11T20:28:31.960Z,64.30
2018-03-11T20:30:59.460Z,64.40
2018-03-11T20:33:26.954Z,64.50
2018-03-11T20:35:54.442Z,64.80
2018-03-11T20:38:21.901Z,65.00
2018-03-11T20:40:49.415Z,65.40
2018-03-11T20:43:16.877Z,65.50
2018-03-11T20:45:44.358Z,65.80
2018-03-11T20:48:12.675Z,66.30
2018-03-11T20:50:40.174Z,66.30
2018-03-11T20:53:07.646Z,66.40
2018-03-11T20:55:35.904Z,67.00
2018-03-11T20:58:03.417Z,66.90
2018-03-11T21:00:30.924Z,67.00
2018-03-11T21:02:58.403Z,67.10
2018-03-11T21:05:26.658Z,67.50
2018-03-11T21:07:54.138Z,67.40
2018-03-11T21:10:21.600Z,67.50
2018-03-11T21:12:49.114Z,67.60
2018-03-11T21:15:16.714Z,67.60
2018-03-11T21:17:44.199Z,67.70
2018-03-11T21:20:11.686Z,67.70
2018-03-11T21:22:39.165Z,67.60
2018-03-11T21:25:06.625Z,67.80
2018-03-11T21:27:34.128Z,68.00
2018-03-11T21:30:01.639Z,68.20
2018-03-11T21:32:29.114Z,68.40
2018-03-11T21:34:57.341Z,68.90
2018-03-11T21:37:24.847Z,68.90
2018-03-11T21:39:53.078Z,69.50
2018-03-11T21:42:20.548Z,69.50
2018-03-11T21:44:48.012Z,69.60
2018-03-11T21:47:15.483Z,69.60
2018-03-11T21:49:42.964Z,69.60
2018-03-11T21:52:10.452Z,69.80
2018-03-11T21:54:37.919Z,70.10
2018-03-11T21:57:05.372Z,70.30
2018-03-11T21:59:32.852Z,70.40
2018-03-11T22:02:00.306Z,70.40
2018-03-11T22:04:27.763Z,70.50
2018-03-11T22:06:57.129Z,70.40
2018-03-11T22:09:24.600Z,70.40
2018-03-11T22:11:52.064Z,70.50
2018-03-11T22:14:19.625Z,70.80
2018-03-11T22:16:47.085Z,71.00
2018-03-11T22:19:14.562Z,71.00
2018-03-11T22:21:42.023Z,71.10
2018-03-11T22:24:09.491Z,71.10
2018-03-11T22:26:36.949Z,71.00
2018-03-11T22:29:04.419Z,71.00
2018-03-11T22:31:31.869Z,71.20
2018-03-11T22:33:59.397Z,71.20
2018-03-11T22:36:26.879Z,71.30
2018-03-11T22:38:54.343Z,71.40
2018-03-11T22:41:21.820Z,71.60
2018-03-11T22:43:49.283Z,71.80
2018-03-11T22:46:16.790Z,71.80
2018-03-11T22:48:45.045Z,71.90
2018-03-11T22:51:12.511Z,71.90
2018-03-11T22:53:39.971Z,72.00
2018-03-11T22:56:07.458Z,72.10
2018-03-11T22:58:34.922Z,72.20
2018-03-11T23:01:02.441Z,72.20
2018-03-11T23:03:29.914Z,72.30
2018-03-11T23:05:58.149Z,72.50
2018-03-11T23:08:25.618Z,72.50
2018-03-11T23:10:53.174Z,72.50
2018-03-11T23:13:20.640Z,72.80
2018-03-11T23:15:48.090Z,72.80
2018-03-11T23:18:15.542Z,72.80
2018-03-11T23:20:43.010Z,72.70
2018-03-11T23:23:10.486Z,72.80
2018-03-11T23:25:37.955Z,72.70
2018-03-11T23:28:06.204Z,72.50
2018-03-11T23:30:33.694Z,72.50
2018-03-11T23:33:01.156Z,72.70
2018-03-11T23:35:28.616Z,72.80
2018-03-11T23:40:29.883Z,73.20
2018-03-11T23:42:57.331Z,73.20
2018-03-11T23:45:24.785Z,73.30
2018-03-11T23:47:52.263Z,73.30
2018-03-11T23:50:19.718Z,73.40
2018-03-11T23:52:47.186Z,73.50
2018-03-11T23:55:14.655Z,73.50
2018-03-11T23:57:42.118Z,73.70
